createdAt,value
2018-11-05T00:01:32.431Z,26.17
2018-11-05T00:04:04.488Z,25.37
2018-11-05T00:06:36.439Z,24.53
2018-11-05T00:09:09.435Z,23.77
2018-11-05T00:11:41.384Z,23.93
2018-11-05T00:14:13.480Z,26.00
2018-11-05T00:16:45.484Z,26.43
2018-11-05T00:19:17.513Z,24.27
2018-11-05T00:21:49.475Z,23.77
2018-11-05T00:24:21.441Z,26.50
2018-11-05T00:26:53.410Z,24.57
2018-11-05T00:29:25.376Z,26.10
2018-11-05T00:31:57.343Z,23.90
2018-11-05T00:34:29.353Z,24.70
2018-11-05T00:37:01.327Z,24.17
2018-11-05T00:39:33.338Z,23.97
2018-11-05T00:42:05.323Z,23.70
2018-11-05T00:44:37.410Z,24.90
2018-11-05T00:47:09.363Z,23.03
2018-11-05T00:49:41.362Z,24.57
2018-11-05T00:52:13.327Z,22.37
2018-11-05T00:54:45.295Z,22.20
2018-11-05T00:57:17.271Z,22.70
2018-11-05T00:59:49.384Z,23.27
2018-11-05T01:02:21.374Z,23.90
2018-11-05T01:04:53.383Z,24.40
2018-11-05T01:07:25.455Z,25.77
2018-11-05T01:09:57.435Z,25.07
2018-11-05T01:12:29.402Z,23.47
2018-11-05T01:15:01.427Z,24.23
2018-11-05T01:17:33.355Z,24.80
2018-11-05T01:20:05.889Z,25.40
2018-11-05T01:22:38.190Z,23.83
2018-11-05T01:25:10.315Z,25.60
2018-11-05T01:27:42.280Z,24.53
2018-11-05T01:30:20.959Z,24.60
2018-11-05T01:32:52.927Z,25.83
2018-11-05T01:35:24.898Z,29.40
2018-11-05T01:37:56.845Z,25.30
2018-11-05T01:40:28.832Z,27.13
2018-11-05T01:43:00.815Z,26.43
2018-11-05T01:45:32.827Z,24.27
2018-11-05T01:48:05.159Z,25.20
2018-11-05T01:50:37.227Z,24.13
2018-11-05T01:53:09.212Z,22.03
2018-11-05T01:55:41.262Z,22.42
2018-11-05T01:58:13.250Z,22.60
2018-11-05T02:00:45.222Z,20.07
2018-11-05T02:03:17.263Z,22.77
2018-11-05T02:05:49.262Z,20.85
2018-11-05T02:08:21.247Z,20.17
2018-11-05T02:10:53.262Z,21.42
2018-11-05T02:13:25.375Z,24.07
2018-11-05T02:15:57.340Z,21.85
2018-11-05T02:18:29.300Z,21.70
2018-11-05T02:21:01.304Z,21.30
2018-11-05T02:23:33.291Z,21.73
2018-11-05T02:26:05.766Z,22.22
2018-11-05T02:28:37.759Z,21.17
2018-11-05T02:31:09.768Z,20.60
2018-11-05T02:33:41.776Z,20.57
2018-11-05T02:36:13.791Z,19.73
2018-11-05T02:38:45.785Z,16.55
2018-11-05T02:41:17.843Z,14.70
2018-11-05T02:43:49.831Z,14.85
2018-11-05T02:46:21.824Z,14.63
2018-11-05T02:48:53.890Z,15.10
2018-11-05T02:51:25.886Z,15.00
2018-11-05T02:53:57.903Z,14.98
2018-11-05T02:56:29.888Z,11.97
2018-11-05T02:59:01.863Z,14.03
2018-11-05T03:01:33.827Z,14.18
2018-11-05T03:04:05.935Z,13.75
2018-11-05T03:06:37.918Z,14.00
2018-11-05T03:09:11.229Z,14.10
2018-11-05T03:11:43.257Z,13.53
2018-11-05T03:14:15.237Z,12.75
2018-11-05T03:16:47.222Z,13.53
2018-11-05T03:19:19.207Z,15.28
2018-11-05T03:21:51.195Z,11.65
2018-11-05T03:24:23.159Z,14.00
2018-11-05T03:26:55.163Z,13.50
2018-11-05T03:29:27.159Z,13.35
2018-11-05T03:31:59.136Z,13.78
2018-11-05T03:34:31.165Z,13.83
2018-11-05T03:37:03.284Z,12.98
2018-11-05T03:39:35.275Z,13.85
2018-11-05T03:42:07.290Z,13.65
2018-11-05T03:44:39.315Z,15.15
2018-11-05T03:47:11.308Z,15.35
2018-11-05T03:49:43.320Z,14.40
2018-11-05T03:52:15.315Z,15.45
2018-11-05T03:54:47.311Z,15.28
2018-11-05T03:57:19.327Z,15.72
2018-11-05T03:59:51.319Z,15.83
2018-11-05T04:02:23.335Z,15.48
2018-11-05T04:04:55.309Z,15.80
2018-11-05T04:07:27.315Z,15.75
2018-11-05T04:09:59.332Z,15.75
2018-11-05T04:12:31.346Z,16.42
2018-11-05T04:15:03.478Z,17.00
2018-11-05T04:17:35.511Z,16.95
2018-11-05T04:20:09.320Z,15.80
2018-11-05T04:22:42.193Z,17.60
2018-11-05T04:25:14.201Z,15.35
2018-11-05T04:27:46.279Z,15.18
2018-11-05T04:30:18.193Z,15.20
2018-11-05T04:32:50.192Z,14.93
2018-11-05T04:35:22.164Z,15.45
2018-11-05T04:37:54.162Z,16.30
2018-11-05T04:40:26.191Z,14.55
2018-11-05T04:42:58.177Z,15.23
2018-11-05T04:45:30.196Z,15.38
2018-11-05T04:48:02.171Z,16.17
2018-11-05T04:50:34.152Z,14.93
2018-11-05T04:53:06.134Z,16.05
2018-11-05T04:55:38.203Z,13.70
2018-11-05T04:58:10.266Z,15.05
2018-11-05T05:00:42.239Z,15.85
2018-11-05T05:03:14.250Z,14.60
2018-11-05T05:05:46.224Z,15.55
2018-11-05T05:08:18.190Z,14.95
2018-11-05T05:10:50.190Z,14.47
2018-11-05T05:13:22.170Z,14.10
2018-11-05T05:15:54.144Z,14.38
2018-11-05T05:18:26.185Z,14.63
2018-11-05T05:20:58.211Z,16.23
2018-11-05T05:23:30.184Z,15.05
2018-11-05T05:26:02.268Z,14.47
2018-11-05T05:28:34.469Z,13.68
2018-11-05T05:31:06.683Z,15.10
2018-11-05T05:33:38.693Z,14.10
2018-11-05T05:36:10.737Z,13.95
2018-11-05T05:38:42.748Z,13.40
2018-11-05T05:41:14.813Z,14.25
2018-11-05T05:43:46.758Z,14.15
2018-11-05T05:46:18.756Z,15.20
2018-11-05T05:48:50.769Z,14.05
2018-11-05T05:51:22.779Z,14.60
2018-11-05T05:53:54.779Z,14.73
2018-11-05T05:56:26.746Z,15.03
2018-11-05T05:58:58.759Z,14.05
2018-11-05T06:01:30.728Z,15.10
2018-11-05T06:04:02.760Z,14.73
2018-11-05T06:06:34.834Z,14.55
2018-11-05T06:09:08.110Z,15.50
2018-11-05T06:11:40.120Z,14.07
2018-11-05T06:14:12.149Z,16.05
2018-11-05T06:16:44.155Z,15.60
2018-11-05T06:19:16.130Z,14.95
2018-11-05T06:21:48.181Z,14.38
2018-11-05T06:24:20.114Z,15.00
2018-11-05T06:26:52.117Z,16.00
2018-11-05T06:29:24.123Z,16.12
2018-11-05T06:31:56.945Z,15.15
2018-11-05T06:34:28.938Z,15.68
2018-11-05T06:37:00.940Z,15.80
2018-11-05T06:39:32.997Z,15.18
2018-11-05T06:42:04.963Z,15.03
2018-11-05T06:44:37.004Z,14.55
2018-11-05T06:47:08.970Z,14.55
2018-11-05T06:49:40.972Z,15.58
2018-11-05T06:52:12.974Z,16.20
2018-11-05T06:54:44.956Z,15.20
2018-11-05T06:57:16.970Z,15.95
2018-11-05T06:59:48.955Z,16.35
2018-11-05T07:02:20.942Z,15.93
2018-11-05T07:04:52.960Z,16.10
2018-11-05T07:07:24.958Z,16.70
2018-11-05T07:09:56.995Z,16.15
2018-11-05T07:12:30.013Z,15.35
2018-11-05T07:15:02.230Z,16.10
2018-11-05T07:17:34.280Z,15.48
2018-11-05T07:20:08.519Z,14.25
2018-11-05T07:22:40.567Z,15.83
2018-11-05T07:25:13.601Z,14.85
2018-11-05T07:27:45.728Z,15.48
2018-11-05T07:30:20.043Z,15.80
2018-11-05T07:32:53.445Z,14.35
2018-11-05T07:35:25.467Z,15.23
2018-11-05T07:37:57.512Z,15.15
2018-11-05T07:40:29.544Z,16.05
2018-11-05T07:43:01.534Z,15.47
2018-11-05T07:45:33.526Z,15.10
2018-11-05T07:48:05.523Z,15.10
2018-11-05T07:50:39.575Z,14.70
2018-11-05T07:53:11.580Z,15.03
2018-11-05T07:55:43.618Z,15.43
2018-11-05T07:58:15.587Z,15.20
2018-11-05T08:00:48.442Z,14.07
2018-11-05T08:03:20.430Z,14.60
2018-11-05T08:05:52.534Z,15.23
2018-11-05T08:08:24.588Z,14.90
2018-11-05T08:10:56.559Z,15.10
2018-11-05T08:13:28.551Z,15.20
2018-11-05T08:16:00.537Z,15.07
2018-11-05T08:18:32.534Z,14.77
2018-11-05T08:21:04.611Z,14.53
2018-11-05T08:23:36.634Z,15.30
2018-11-05T08:26:08.639Z,13.90
2018-11-05T08:28:40.620Z,14.83
2018-11-05T08:31:12.640Z,14.93
2018-11-05T08:33:44.642Z,14.17
2018-11-05T08:36:16.696Z,14.30
2018-11-05T08:38:48.686Z,12.37
2018-11-05T08:41:20.696Z,14.07
2018-11-05T08:43:52.707Z,13.17
2018-11-05T08:46:24.694Z,14.20
2018-11-05T08:48:56.679Z,12.13
2018-11-05T08:51:28.917Z,14.13
2018-11-05T08:54:00.689Z,13.50
2018-11-05T08:56:32.611Z,14.07
2018-11-05T08:59:04.695Z,12.33
2018-11-05T09:01:36.718Z,12.20
2018-11-05T09:04:08.726Z,12.10
2018-11-05T09:06:40.750Z,12.60
2018-11-05T09:09:12.809Z,12.90
2018-11-05T09:11:44.940Z,12.07
2018-11-05T09:14:16.859Z,12.77
2018-11-05T09:16:48.839Z,13.40
2018-11-05T09:19:20.865Z,11.73
2018-11-05T09:21:52.870Z,10.90
2018-11-05T09:24:24.859Z,11.53
2018-11-05T09:26:56.826Z,13.03
2018-11-05T09:29:28.823Z,12.80
2018-11-05T09:32:00.839Z,12.27
2018-11-05T09:34:32.847Z,11.70
2018-11-05T09:37:04.897Z,11.13
2018-11-05T09:39:36.875Z,12.13
2018-11-05T09:42:08.878Z,11.87
2018-11-05T09:44:40.871Z,11.30
2018-11-05T09:47:12.871Z,12.07
2018-11-05T09:49:44.840Z,11.90
2018-11-05T09:52:16.896Z,12.40
2018-11-05T09:54:49.102Z,11.20
2018-11-05T09:57:21.255Z,11.60
2018-11-05T09:59:53.119Z,13.30
2018-11-05T10:02:29.715Z,11.93
2018-11-05T10:05:02.009Z,12.27
2018-11-05T10:07:33.867Z,11.80
2018-11-05T10:10:06.995Z,12.27
2018-11-05T10:12:39.654Z,12.03
2018-11-05T10:15:12.572Z,11.23
2018-11-05T10:17:45.299Z,14.17
2018-11-05T10:20:20.615Z,11.70
2018-11-05T10:22:58.212Z,12.50
2018-11-05T10:25:30.308Z,12.77
2018-11-05T10:28:03.565Z,12.03
2018-11-05T10:30:35.633Z,12.90
2018-11-05T10:33:07.805Z,11.53
2018-11-05T10:35:45.555Z,12.60
2018-11-05T10:38:17.682Z,12.17
2018-11-05T10:40:49.744Z,12.27
2018-11-05T10:43:21.829Z,12.37
2018-11-05T10:45:53.847Z,12.40
2018-11-05T10:48:25.888Z,12.13
2018-11-05T10:50:57.979Z,12.63
2018-11-05T10:53:29.928Z,11.40
2018-11-05T10:56:02.203Z,12.40
2018-11-05T10:58:34.228Z,12.53
2018-11-05T11:01:13.547Z,11.87
2018-11-05T11:03:51.479Z,11.53
2018-11-05T11:06:23.471Z,11.37
2018-11-05T11:08:55.555Z,12.50
2018-11-05T11:11:27.575Z,11.50
2018-11-05T11:13:59.599Z,12.47
2018-11-05T11:16:31.647Z,11.17
2018-11-05T11:19:03.767Z,12.00
2018-11-05T11:21:35.804Z,10.93
2018-11-05T11:24:07.955Z,11.20
2018-11-05T11:26:39.982Z,11.97
2018-11-05T11:29:12.141Z,11.37
2018-11-05T11:31:44.048Z,10.93
2018-11-05T11:34:16.119Z,10.97
2018-11-05T11:36:48.215Z,11.90
2018-11-05T11:39:20.159Z,12.53
2018-11-05T11:41:52.187Z,11.43
2018-11-05T11:44:24.193Z,11.77
2018-11-05T11:46:56.203Z,11.70
2018-11-05T11:49:28.307Z,10.90
2018-11-05T11:52:00.299Z,11.20
2018-11-05T11:54:32.322Z,12.03
2018-11-05T11:57:04.562Z,10.70
2018-11-05T11:59:36.644Z,10.30
2018-11-05T12:02:13.571Z,9.70
2018-11-05T12:04:45.637Z,9.93
2018-11-05T12:07:18.663Z,10.30
2018-11-05T12:09:50.736Z,8.73
2018-11-05T12:12:22.779Z,8.80
2018-11-05T12:14:54.866Z,8.90
2018-11-05T12:17:26.814Z,9.93
2018-11-05T12:19:58.831Z,10.73
2018-11-05T12:22:30.834Z,9.20
2018-11-05T12:25:02.994Z,9.10
2018-11-05T12:27:35.051Z,9.57
2018-11-05T12:30:15.259Z,10.10
2018-11-05T12:32:48.133Z,9.40
2018-11-05T12:35:20.143Z,8.40
2018-11-05T12:37:52.756Z,8.90
2018-11-05T12:40:24.751Z,8.30
2018-11-05T12:42:56.756Z,9.23
2018-11-05T12:45:28.839Z,8.40
2018-11-05T12:48:00.891Z,9.63
2018-11-05T12:50:32.959Z,8.10
2018-11-05T12:53:05.164Z,7.97
2018-11-05T12:55:37.219Z,7.50
2018-11-05T12:58:09.172Z,8.67
2018-11-05T13:00:41.164Z,8.60
2018-11-05T13:03:13.170Z,7.73
2018-11-05T13:05:45.175Z,8.00
2018-11-05T13:08:17.183Z,7.40
2018-11-05T13:10:49.190Z,7.90
2018-11-05T13:13:21.275Z,8.50
2018-11-05T13:15:53.273Z,7.63
2018-11-05T13:18:25.280Z,7.37
2018-11-05T13:20:57.301Z,7.87
2018-11-05T13:23:37.531Z,7.90
2018-11-05T13:26:09.797Z,7.43
2018-11-05T13:28:41.815Z,6.20
2018-11-05T13:31:13.856Z,7.23
2018-11-05T13:33:45.851Z,7.53
2018-11-05T13:36:17.863Z,7.77
2018-11-05T13:38:49.914Z,7.80
2018-11-05T13:41:22.010Z,7.13
2018-11-05T13:43:54.021Z,6.70
2018-11-05T13:46:26.532Z,6.70
2018-11-05T13:48:58.568Z,8.37
2018-11-05T13:51:30.267Z,7.00
2018-11-05T13:54:02.404Z,6.70
2018-11-05T13:56:34.374Z,7.10
2018-11-05T13:59:06.378Z,7.43
2018-11-05T14:01:38.414Z,8.27
2018-11-05T14:04:10.404Z,6.83
2018-11-05T14:06:43.412Z,6.30
2018-11-05T14:09:15.438Z,6.83
2018-11-05T14:11:47.492Z,7.43
2018-11-05T14:14:19.506Z,6.50
2018-11-05T14:16:51.565Z,7.20
2018-11-05T14:19:23.588Z,7.87
2018-11-05T14:21:55.598Z,7.10
2018-11-05T14:24:27.603Z,7.30
2018-11-05T14:26:59.616Z,7.37
2018-11-05T14:29:32.033Z,7.17
2018-11-05T14:32:03.905Z,7.53
2018-11-05T14:34:35.944Z,6.87
2018-11-05T14:37:08.091Z,7.20
2018-11-05T14:39:40.051Z,7.27
2018-11-05T14:42:12.059Z,7.33
2018-11-05T14:44:44.064Z,6.70
2018-11-05T14:47:16.097Z,6.83
2018-11-05T14:49:48.117Z,7.20
2018-11-05T14:52:20.134Z,8.30
2018-11-05T14:54:52.229Z,7.60
2018-11-05T14:57:24.332Z,7.77
2018-11-05T14:59:56.299Z,6.90
2018-11-05T15:02:34.067Z,7.07
2018-11-05T15:05:06.587Z,7.97
2018-11-05T15:07:39.283Z,7.40
2018-11-05T15:10:13.616Z,7.20
2018-11-05T15:12:45.623Z,8.20
2018-11-05T15:15:18.227Z,7.70
2018-11-05T15:17:50.243Z,7.90
2018-11-05T15:20:22.967Z,7.27
2018-11-05T15:22:54.927Z,7.90
2018-11-05T15:25:26.989Z,7.40
2018-11-05T15:27:59.009Z,7.40
2018-11-05T15:30:31.021Z,7.60
2018-11-05T15:33:03.049Z,7.13
2018-11-05T15:35:35.099Z,7.97
2018-11-05T15:38:07.131Z,7.57
2018-11-05T15:40:39.131Z,7.80
2018-11-05T15:43:11.153Z,7.67
2018-11-05T15:45:43.182Z,6.70
2018-11-05T15:48:15.208Z,7.83
2018-11-05T15:50:47.248Z,6.40
2018-11-05T15:53:19.650Z,7.90
2018-11-05T15:55:51.329Z,7.60
2018-11-05T15:58:23.334Z,8.10
2018-11-05T16:00:55.383Z,8.27
2018-11-05T16:03:27.387Z,7.83
2018-11-05T16:05:59.367Z,7.90
2018-11-05T16:08:31.372Z,7.60
2018-11-05T16:11:03.389Z,8.43
2018-11-05T16:13:35.431Z,8.10
2018-11-05T16:16:07.465Z,8.33
2018-11-05T16:18:39.744Z,9.10
2018-11-05T16:21:11.747Z,7.30
2018-11-05T16:23:43.792Z,8.10
2018-11-05T16:26:15.815Z,8.43
2018-11-05T16:28:47.931Z,8.03
2018-11-05T16:31:19.945Z,7.03
2018-11-05T16:33:51.961Z,7.90
2018-11-05T16:36:23.972Z,7.60
2018-11-05T16:38:56.018Z,8.37
2018-11-05T16:42:31.232Z,8.47
2018-11-05T16:45:03.424Z,8.13
2018-11-05T16:47:35.769Z,8.20
2018-11-05T16:50:13.749Z,8.67
2018-11-05T16:52:45.803Z,8.17
2018-11-05T16:55:17.899Z,8.50
2018-11-05T16:57:49.961Z,8.70
2018-11-05T17:00:21.971Z,8.60
2018-11-05T17:02:54.059Z,9.30
2018-11-05T17:05:26.139Z,9.30
2018-11-05T17:07:58.184Z,7.97
2018-11-05T17:10:30.189Z,8.20
2018-11-05T17:13:02.228Z,9.17
2018-11-05T17:15:34.211Z,8.63
2018-11-05T17:18:06.223Z,9.30
2018-11-05T17:20:38.238Z,9.33
2018-11-05T17:23:10.235Z,9.53
2018-11-05T17:25:42.239Z,10.30
2018-11-05T17:28:14.287Z,10.23
2018-11-05T17:30:46.427Z,8.47
2018-11-05T17:33:18.452Z,8.90
2018-11-05T17:35:50.520Z,8.90
2018-11-05T17:38:22.695Z,9.43
2018-11-05T17:40:54.727Z,10.43
2018-11-05T17:43:26.754Z,10.23
2018-11-05T17:45:58.793Z,9.37
2018-11-05T17:48:30.884Z,9.50
2018-11-05T17:51:02.895Z,10.53
2018-11-05T17:53:35.124Z,10.20
2018-11-05T17:56:07.173Z,9.70
2018-11-05T17:58:39.201Z,11.10
2018-11-05T18:01:11.285Z,10.50
2018-11-05T18:03:43.385Z,10.83
2018-11-05T18:06:15.321Z,10.50
2018-11-05T18:08:47.467Z,11.53
2018-11-05T18:11:19.474Z,10.57
2018-11-05T18:13:51.609Z,11.43
2018-11-05T18:16:23.624Z,12.00
2018-11-05T18:18:55.736Z,11.43
2018-11-05T18:21:27.950Z,12.50
2018-11-05T18:24:00.228Z,11.70
2018-11-05T18:26:32.257Z,12.20
2018-11-05T18:29:04.613Z,11.57
2018-11-05T18:31:36.895Z,12.03
2018-11-05T18:34:08.943Z,11.53
2018-11-05T18:36:40.991Z,11.40
2018-11-05T18:39:13.039Z,12.07
2018-11-05T18:41:45.143Z,11.57
2018-11-05T18:44:17.201Z,11.43
2018-11-05T18:46:49.280Z,11.33
2018-11-05T18:49:21.336Z,11.50
2018-11-05T18:51:53.560Z,13.93
2018-11-05T18:54:25.582Z,14.00
2018-11-05T18:56:57.651Z,12.23
2018-11-05T18:59:29.759Z,12.40
2018-11-05T19:02:02.267Z,12.57
2018-11-05T19:04:34.306Z,13.43
2018-11-05T19:07:06.304Z,12.97
2018-11-05T19:09:38.431Z,14.23
2018-11-05T19:12:10.404Z,14.03
2018-11-05T19:14:42.428Z,14.60
2018-11-05T19:17:14.471Z,13.27
2018-11-05T19:19:46.505Z,13.60
2018-11-05T19:22:18.587Z,14.33
2018-11-05T19:24:50.594Z,14.47
2018-11-05T19:27:22.756Z,15.40
2018-11-05T19:29:54.779Z,14.40
2018-11-05T19:32:26.778Z,14.20
2018-11-05T19:34:58.815Z,15.00
2018-11-05T19:37:30.827Z,15.90
2018-11-05T19:40:03.581Z,15.23
2018-11-05T19:42:35.883Z,15.90
2018-11-05T19:45:09.437Z,15.27
2018-11-05T19:47:41.503Z,14.97
2018-11-05T19:50:15.211Z,15.17
2018-11-05T19:52:48.437Z,15.20
2018-11-05T19:55:20.666Z,14.83
2018-11-05T19:57:53.050Z,13.87
2018-11-05T20:00:27.037Z,13.70
2018-11-05T20:03:00.035Z,14.67
2018-11-05T20:05:32.124Z,14.03
2018-11-05T20:08:04.090Z,15.80
2018-11-05T20:10:36.133Z,15.23
2018-11-05T20:13:08.118Z,15.00
2018-11-05T20:15:40.328Z,14.37
2018-11-05T20:18:12.229Z,16.00
2018-11-05T20:20:44.232Z,14.07
2018-11-05T20:23:16.238Z,13.27
2018-11-05T20:25:48.287Z,16.07
2018-11-05T20:28:20.330Z,14.07
2018-11-05T20:30:52.412Z,14.53
2018-11-05T20:33:24.686Z,14.37
2018-11-05T20:35:56.442Z,14.70
2018-11-05T20:38:28.453Z,15.27
2018-11-05T20:41:00.461Z,14.13
2018-11-05T20:43:32.460Z,13.97
2018-11-05T20:46:04.547Z,16.47
2018-11-05T20:48:36.608Z,15.60
2018-11-05T20:51:08.694Z,16.20
2018-11-05T20:53:40.714Z,15.10
2018-11-05T20:56:12.739Z,15.50
2018-11-05T20:58:44.746Z,15.53
2018-11-05T21:01:16.759Z,15.43
2018-11-05T21:03:48.768Z,16.10
2018-11-05T21:06:20.793Z,14.90
2018-11-05T21:08:52.897Z,16.50
2018-11-05T21:11:24.912Z,15.77
2018-11-05T21:13:56.922Z,16.50
2018-11-05T21:16:28.911Z,15.30
2018-11-05T21:19:00.903Z,15.30
2018-11-05T21:21:33.011Z,16.30
2018-11-05T21:24:04.960Z,15.40
2018-11-05T21:26:37.132Z,15.70
2018-11-05T21:29:09.011Z,15.87
2018-11-05T21:31:41.006Z,16.45
2018-11-05T21:34:13.156Z,16.50
2018-11-05T21:36:45.202Z,16.55
2018-11-05T21:39:17.240Z,17.47
2018-11-05T21:41:49.260Z,16.15
2018-11-05T21:44:21.319Z,16.97
2018-11-05T21:46:53.374Z,17.82
2018-11-05T21:49:25.371Z,15.63
2018-11-05T21:51:57.425Z,18.07
2018-11-05T21:54:29.501Z,17.60
2018-11-05T21:57:01.503Z,17.37
2018-11-05T21:59:33.507Z,17.77
2018-11-05T22:02:05.511Z,17.75
2018-11-05T22:04:37.726Z,16.50
2018-11-05T22:07:09.811Z,18.00
2018-11-05T22:09:41.827Z,17.00
2018-11-05T22:12:13.855Z,17.32
2018-11-05T22:14:45.977Z,17.20
2018-11-05T22:17:17.993Z,16.23
2018-11-05T22:19:49.994Z,16.00
2018-11-05T22:22:22.028Z,16.57
2018-11-05T22:24:54.131Z,16.80
2018-11-05T22:27:26.371Z,18.30
2018-11-05T22:29:59.194Z,18.00
2018-11-05T22:32:31.251Z,17.98
2018-11-05T22:35:03.355Z,16.97
2018-11-05T22:37:35.695Z,16.85
2018-11-05T22:40:09.864Z,16.95
2018-11-05T22:42:41.989Z,16.10
2018-11-05T22:45:14.664Z,16.43
2018-11-05T22:47:46.975Z,16.77
2018-11-05T22:50:19.027Z,15.85
2018-11-05T22:52:50.983Z,17.10
2018-11-05T22:55:23.022Z,15.90
2018-11-05T22:57:55.022Z,15.90
2018-11-05T23:00:32.804Z,16.23
2018-11-05T23:03:10.387Z,15.90
2018-11-05T23:05:42.391Z,16.27
2018-11-05T23:08:14.549Z,16.23
2018-11-05T23:10:46.536Z,15.97
2018-11-05T23:13:18.524Z,16.55
2018-11-05T23:15:50.581Z,14.47
2018-11-05T23:18:22.615Z,16.80
2018-11-05T23:20:54.612Z,17.82
2018-11-05T23:23:26.701Z,16.35
2018-11-05T23:25:58.727Z,14.83
2018-11-05T23:28:30.732Z,15.25
2018-11-05T23:31:02.799Z,17.40
2018-11-05T23:33:34.967Z,14.95
2018-11-05T23:36:06.870Z,16.07
2018-11-05T23:38:38.927Z,15.25
2018-11-05T23:41:11.015Z,13.80
2018-11-05T23:43:42.992Z,13.62
2018-11-05T23:46:14.999Z,15.25
2018-11-05T23:48:46.986Z,13.75
2018-11-05T23:51:19.080Z,14.70
2018-11-05T23:53:51.107Z,13.95
2018-11-05T23:56:23.172Z,14.03
2018-11-05T23:58:55.147Z,14.70
